createdAt,value
2023-02-27T00:01:36.254Z,-1.38
2023-02-27T00:04:39.150Z,-1.45
2023-02-27T00:07:42.571Z,-1.47
2023-02-27T00:10:45.605Z,-1.40
2023-02-27T00:13:48.540Z,-1.38
2023-02-27T00:16:51.819Z,-1.38
2023-02-27T00:19:55.142Z,-1.35
2023-02-27T00:22:58.012Z,-1.40
2023-02-27T00:26:01.215Z,-1.38
2023-02-27T00:29:04.665Z,-1.42
2023-02-27T00:32:07.516Z,-1.40
2023-02-27T00:35:11.737Z,-1.27
2023-02-27T00:38:14.504Z,-1.25
2023-02-27T00:41:17.066Z,-1.22
2023-02-27T00:44:19.719Z,-1.19
2023-02-27T00:47:22.271Z,-1.29
2023-02-27T00:50:25.070Z,-1.33
2023-02-27T00:53:28.036Z,-1.33
2023-02-27T00:56:31.077Z,-1.23
2023-02-27T00:59:33.698Z,-1.19
2023-02-27T01:02:36.614Z,-1.26
2023-02-27T01:05:39.831Z,-1.31
2023-02-27T01:08:42.502Z,-1.27
2023-02-27T01:11:45.548Z,-1.37
2023-02-27T01:14:48.223Z,-1.40
2023-02-27T01:17:53.998Z,-1.26
2023-02-27T01:20:56.877Z,-1.35
2023-02-27T01:23:59.666Z,-1.42
2023-02-27T01:27:02.391Z,-1.51
2023-02-27T01:30:07.321Z,-1.49
2023-02-27T01:33:10.322Z,-1.50
2023-02-27T01:36:16.014Z,-1.56
2023-02-27T01:39:18.679Z,-1.53
2023-02-27T01:42:24.945Z,-1.50
2023-02-27T01:45:29.304Z,-1.59
2023-02-27T01:48:36.932Z,-1.55
2023-02-27T01:51:45.762Z,-1.57
2023-02-27T01:54:48.460Z,-1.49
2023-02-27T01:57:51.703Z,-1.65
2023-02-27T02:00:57.816Z,-1.63
2023-02-27T02:04:09.032Z,-1.69
2023-02-27T02:07:16.996Z,-1.61
2023-02-27T02:10:21.044Z,-1.58
2023-02-27T02:13:24.320Z,-1.52
2023-02-27T02:16:37.496Z,-1.65
2023-02-27T02:19:40.798Z,-1.56
2023-02-27T02:23:21.349Z,-1.43
2023-02-27T02:26:51.507Z,-1.49
2023-02-27T02:30:11.743Z,-1.43
2023-02-27T02:33:41.262Z,-1.35
2023-02-27T02:37:02.981Z,-1.40
2023-02-27T02:40:08.698Z,-1.33
2023-02-27T02:43:40.609Z,-1.36
2023-02-27T02:46:48.250Z,-1.26
2023-02-27T02:49:56.920Z,-1.16
2023-02-27T02:53:22.335Z,-1.21
2023-02-27T02:56:27.574Z,-1.13
2023-02-27T02:59:37.408Z,-1.04
2023-02-27T03:02:45.820Z,-1.05
2023-02-27T03:05:53.365Z,-1.06
2023-02-27T03:09:08.491Z,-1.10
2023-02-27T03:12:14.961Z,-1.05
2023-02-27T03:15:21.195Z,-1.12
2023-02-27T03:18:28.870Z,-1.01
2023-02-27T03:21:39.575Z,-0.98
2023-02-27T03:24:45.806Z,-1.06
2023-02-27T03:28:01.643Z,-1.04
2023-02-27T03:31:10.321Z,-0.99
2023-02-27T03:34:16.274Z,-0.96
2023-02-27T03:37:37.681Z,-0.92
2023-02-27T03:40:50.294Z,-0.98
2023-02-27T03:44:26.144Z,-0.85
2023-02-27T03:47:29.982Z,-0.83
2023-02-27T03:50:34.464Z,-0.85
2023-02-27T03:53:59.916Z,-0.86
2023-02-27T03:57:07.811Z,-0.81
2023-02-27T04:00:14.901Z,-0.80
2023-02-27T04:03:18.317Z,-0.81
2023-02-27T04:06:39.507Z,-0.80
2023-02-27T04:09:58.987Z,-0.82
2023-02-27T04:13:18.492Z,-0.66
2023-02-27T04:16:30.380Z,-0.79
2023-02-27T04:20:05.453Z,-0.71
2023-02-27T04:23:08.054Z,-0.69
2023-02-27T04:26:25.995Z,-0.77
2023-02-27T04:30:00.047Z,-0.69
2023-02-27T04:33:03.047Z,-0.77
2023-02-27T04:36:38.601Z,-0.88
2023-02-27T04:39:52.156Z,-0.72
2023-02-27T04:42:56.164Z,-0.60
2023-02-27T04:46:00.612Z,-0.64
2023-02-27T04:49:09.330Z,-0.77
2023-02-27T04:52:17.902Z,-0.76
2023-02-27T04:55:28.197Z,-0.78
2023-02-27T04:58:44.581Z,-0.72
2023-02-27T05:01:54.573Z,-0.80
2023-02-27T05:05:00.988Z,-0.78
2023-02-27T05:08:17.032Z,-0.68
2023-02-27T05:11:36.642Z,-0.70
2023-02-27T05:14:47.685Z,-0.66
2023-02-27T05:18:01.064Z,-0.66
2023-02-27T05:21:15.540Z,-0.74
2023-02-27T05:24:27.034Z,-0.75
2023-02-27T05:27:35.380Z,-0.81
2023-02-27T05:30:52.903Z,-0.81
2023-02-27T05:34:32.267Z,-0.76
2023-02-27T05:37:55.441Z,-0.64
2023-02-27T05:41:02.487Z,-0.74
2023-02-27T05:44:27.890Z,-0.77
2023-02-27T05:47:32.333Z,-0.77
2023-02-27T05:50:37.827Z,-0.89
2023-02-27T05:53:44.554Z,-0.88
2023-02-27T05:56:48.044Z,-0.87
2023-02-27T05:59:58.716Z,-0.89
2023-02-27T06:03:01.698Z,-0.88
2023-02-27T06:06:13.185Z,-0.87
2023-02-27T06:09:17.116Z,-0.86
2023-02-27T06:12:20.186Z,-0.87
2023-02-27T06:15:23.547Z,-0.94
2023-02-27T06:18:26.864Z,-0.85
2023-02-27T06:21:29.944Z,-0.79
2023-02-27T06:24:33.100Z,-0.80
2023-02-27T06:27:36.247Z,-0.74
2023-02-27T06:30:39.345Z,-0.47
2023-02-27T06:33:42.332Z,-0.25
2023-02-27T06:36:45.307Z,-0.31
2023-02-27T06:39:48.543Z,-0.25
2023-02-27T06:42:51.893Z,-0.27
2023-02-27T06:45:55.257Z,-0.21
2023-02-27T06:48:58.361Z,0.29
2023-02-27T06:52:01.743Z,-0.18
2023-02-27T06:55:06.334Z,-0.01
2023-02-27T06:58:09.916Z,0.55
2023-02-27T07:01:13.824Z,0.31
2023-02-27T07:04:17.368Z,0.30
2023-02-27T07:07:35.073Z,0.27
2023-02-27T07:10:43.130Z,0.38
2023-02-27T07:13:46.402Z,0.22
2023-02-27T07:16:54.217Z,-0.01
2023-02-27T07:19:57.632Z,0.10
2023-02-27T07:23:00.419Z,-0.01
2023-02-27T07:26:04.502Z,0.08
2023-02-27T07:29:07.556Z,0.61
2023-02-27T07:32:11.749Z,0.30
2023-02-27T07:35:15.103Z,0.32
2023-02-27T07:38:19.543Z,0.27
2023-02-27T07:41:30.723Z,0.19
2023-02-27T07:44:38.349Z,0.20
2023-02-27T07:47:41.961Z,-0.04
2023-02-27T07:50:45.621Z,0.11
2023-02-27T07:53:48.503Z,0.13
2023-02-27T07:56:51.367Z,0.30
2023-02-27T07:59:55.486Z,0.36
2023-02-27T08:02:58.832Z,0.45
2023-02-27T08:06:04.745Z,0.29
2023-02-27T08:09:08.154Z,0.27
2023-02-27T08:12:12.381Z,0.38
2023-02-27T08:15:15.934Z,0.44
2023-02-27T08:18:18.784Z,0.61
2023-02-27T08:21:22.957Z,0.68
2023-02-27T08:24:26.549Z,0.73
2023-02-27T08:27:29.369Z,1.04
2023-02-27T08:30:32.474Z,0.91
2023-02-27T08:33:36.351Z,0.76
2023-02-27T08:36:39.940Z,0.85
2023-02-27T08:39:44.059Z,0.85
2023-02-27T08:42:47.127Z,0.65
2023-02-27T08:45:50.942Z,0.74
2023-02-27T08:48:55.204Z,0.86
2023-02-27T08:51:58.680Z,1.19
2023-02-27T08:55:01.517Z,1.23
2023-02-27T08:58:05.174Z,1.29
2023-02-27T09:01:07.900Z,1.51
2023-02-27T09:04:13.037Z,1.33
2023-02-27T09:07:16.836Z,1.50
2023-02-27T09:10:19.887Z,1.41
2023-02-27T09:13:23.122Z,1.57
2023-02-27T09:16:27.909Z,1.70
2023-02-27T09:19:31.703Z,1.97
2023-02-27T09:22:34.359Z,2.01
2023-02-27T09:25:38.348Z,1.69
2023-02-27T09:28:41.428Z,1.81
2023-02-27T09:31:44.735Z,1.98
2023-02-27T09:34:47.921Z,2.13
2023-02-27T09:37:52.026Z,2.20
2023-02-27T09:40:57.130Z,1.88
2023-02-27T09:44:02.564Z,2.24
2023-02-27T09:47:07.106Z,2.23
2023-02-27T09:50:33.856Z,2.47
2023-02-27T09:53:43.141Z,2.24
2023-02-27T09:56:52.215Z,2.36
2023-02-27T10:00:08.015Z,2.17
2023-02-27T10:03:19.946Z,2.54
2023-02-27T10:06:44.245Z,2.67
2023-02-27T10:10:05.886Z,3.02
2023-02-27T10:13:24.569Z,3.19
2023-02-27T10:16:28.265Z,3.07
2023-02-27T10:19:36.306Z,2.73
2023-02-27T10:22:43.984Z,2.71
2023-02-27T10:25:52.537Z,2.90
2023-02-27T10:28:55.837Z,2.91
2023-02-27T10:32:16.197Z,2.85
2023-02-27T10:35:35.800Z,3.03
2023-02-27T10:38:48.501Z,3.24
2023-02-27T10:41:52.288Z,3.49
2023-02-27T10:44:56.294Z,3.37
2023-02-27T10:48:02.177Z,3.16
2023-02-27T10:51:25.530Z,3.04
2023-02-27T10:54:28.614Z,3.48
2023-02-27T10:57:37.745Z,3.20
2023-02-27T11:00:58.739Z,3.22
2023-02-27T11:04:02.146Z,3.24
2023-02-27T11:07:10.736Z,3.35
2023-02-27T11:10:13.454Z,3.63
2023-02-27T11:13:22.053Z,4.02
2023-02-27T11:16:25.071Z,3.79
2023-02-27T11:19:34.271Z,3.91
2023-02-27T11:22:37.207Z,3.94
2023-02-27T11:25:40.600Z,3.82
2023-02-27T11:28:43.639Z,3.52
2023-02-27T11:31:52.596Z,4.14
2023-02-27T11:34:56.007Z,4.02
2023-02-27T11:38:04.525Z,4.57
2023-02-27T11:41:09.102Z,4.36
2023-02-27T11:44:17.838Z,4.19
2023-02-27T11:47:39.636Z,3.88
2023-02-27T11:51:08.097Z,4.08
2023-02-27T11:54:43.221Z,3.97
2023-02-27T11:57:47.774Z,3.64
2023-02-27T12:01:02.588Z,3.45
2023-02-27T12:04:14.297Z,3.47
2023-02-27T12:07:26.954Z,3.05
2023-02-27T12:10:41.161Z,2.98
2023-02-27T12:13:48.501Z,2.64
2023-02-27T12:16:55.093Z,2.97
2023-02-27T12:20:08.356Z,2.41
2023-02-27T12:23:21.825Z,2.33
2023-02-27T12:26:26.504Z,2.23
2023-02-27T12:29:34.264Z,2.37
2023-02-27T12:32:51.857Z,2.33
2023-02-27T12:36:00.803Z,2.42
2023-02-27T12:39:05.272Z,2.40
2023-02-27T12:42:31.467Z,2.32
2023-02-27T12:45:55.572Z,2.47
2023-02-27T12:49:26.733Z,2.63
2023-02-27T12:53:17.536Z,2.43
2023-02-27T12:56:22.731Z,2.45
2023-02-27T12:59:43.081Z,2.66
2023-02-27T13:03:23.735Z,2.54
2023-02-27T13:06:34.390Z,2.68
2023-02-27T13:09:46.025Z,2.92
2023-02-27T13:12:54.033Z,2.77
2023-02-27T13:16:11.959Z,2.72
2023-02-27T13:19:17.858Z,2.66
2023-02-27T13:22:41.124Z,2.46
2023-02-27T13:25:48.647Z,2.61
2023-02-27T13:28:52.123Z,2.68
2023-02-27T13:32:02.418Z,2.91
2023-02-27T13:35:16.123Z,2.47
2023-02-27T13:38:44.724Z,2.61
2023-02-27T13:41:47.615Z,2.57
2023-02-27T13:44:51.096Z,2.44
2023-02-27T13:47:55.530Z,2.60
2023-02-27T13:51:00.863Z,2.54
2023-02-27T13:54:19.711Z,2.57
2023-02-27T13:57:28.272Z,2.70
2023-02-27T14:00:35.622Z,2.73
2023-02-27T14:03:39.024Z,2.72
2023-02-27T14:06:46.211Z,2.66
2023-02-27T14:09:54.165Z,2.80
2023-02-27T14:12:59.466Z,2.80
2023-02-27T14:16:02.715Z,2.50
2023-02-27T14:19:18.414Z,2.64
2023-02-27T14:22:40.227Z,2.54
2023-02-27T14:25:53.962Z,2.63
2023-02-27T14:28:58.942Z,2.51
2023-02-27T14:32:08.813Z,2.40
2023-02-27T14:35:15.695Z,2.15
2023-02-27T14:38:20.889Z,2.21
2023-02-27T14:41:36.285Z,2.21
2023-02-27T14:44:44.702Z,2.08
2023-02-27T14:47:47.583Z,2.05
2023-02-27T14:50:54.065Z,1.87
2023-02-27T14:54:08.318Z,1.82
2023-02-27T14:57:18.847Z,1.82
2023-02-27T15:00:32.639Z,2.11
2023-02-27T15:03:49.628Z,2.15
2023-02-27T15:06:54.816Z,2.18
2023-02-27T15:10:01.617Z,1.98
2023-02-27T15:13:06.753Z,2.01
2023-02-27T15:16:32.254Z,1.86
2023-02-27T15:19:35.664Z,1.75
2023-02-27T15:22:40.095Z,1.83
2023-02-27T15:25:43.546Z,2.00
2023-02-27T15:28:48.889Z,1.93
2023-02-27T15:31:52.466Z,1.87
2023-02-27T15:34:57.832Z,2.00
2023-02-27T15:38:03.050Z,1.90
2023-02-27T15:41:06.707Z,1.88
2023-02-27T15:44:13.586Z,1.63
2023-02-27T15:47:22.181Z,1.60
2023-02-27T15:50:26.885Z,1.43
2023-02-27T15:53:31.114Z,1.58
2023-02-27T15:56:37.346Z,1.43
2023-02-27T15:59:41.758Z,1.29
2023-02-27T16:02:54.358Z,1.24
2023-02-27T16:05:58.290Z,1.23
2023-02-27T16:09:05.312Z,1.14
2023-02-27T16:12:23.041Z,1.18
2023-02-27T16:15:31.883Z,1.03
2023-02-27T16:18:39.513Z,0.97
2023-02-27T16:22:03.697Z,0.97
2023-02-27T16:25:11.382Z,1.00
2023-02-27T16:28:14.800Z,1.10
2023-02-27T16:31:38.800Z,0.99
2023-02-27T16:34:46.704Z,1.06
2023-02-27T16:37:51.556Z,0.84
2023-02-27T16:40:54.649Z,0.79
2023-02-27T16:43:58.284Z,0.83
2023-02-27T16:47:02.509Z,0.78
2023-02-27T16:50:19.207Z,0.79
2023-02-27T16:53:22.219Z,0.74
2023-02-27T16:56:37.574Z,0.73
2023-02-27T16:59:42.020Z,0.62
2023-02-27T17:02:44.774Z,0.52
2023-02-27T17:05:49.761Z,0.36
2023-02-27T17:08:52.951Z,0.28
2023-02-27T17:11:57.239Z,0.28
2023-02-27T17:15:00.319Z,0.35
2023-02-27T17:18:03.736Z,0.32
2023-02-27T17:21:07.318Z,0.27
2023-02-27T17:24:10.473Z,0.27
2023-02-27T17:27:13.749Z,0.20
2023-02-27T17:30:19.019Z,0.21
2023-02-27T17:33:25.772Z,0.08
2023-02-27T17:36:30.433Z,0.02
2023-02-27T17:39:34.604Z,-0.04
2023-02-27T17:42:39.671Z,0.10
2023-02-27T17:45:42.791Z,0.05
2023-02-27T17:48:45.897Z,-0.04
2023-02-27T17:51:49.246Z,-0.16
2023-02-27T17:54:52.390Z,-0.14
2023-02-27T17:57:55.691Z,-0.13
2023-02-27T18:01:11.814Z,-0.24
2023-02-27T18:04:16.600Z,-0.17
2023-02-27T18:07:19.471Z,-0.12
2023-02-27T18:10:22.425Z,-0.21
2023-02-27T18:13:27.628Z,-0.33
2023-02-27T18:16:31.022Z,-0.41
2023-02-27T18:19:34.070Z,-0.43
2023-02-27T18:22:36.845Z,-0.44
2023-02-27T18:25:40.121Z,-0.50
2023-02-27T18:28:42.902Z,-0.45
2023-02-27T18:31:50.439Z,-0.49
2023-02-27T18:34:54.395Z,-0.45
2023-02-27T18:37:57.511Z,-0.57
2023-02-27T18:41:01.978Z,-0.60
2023-02-27T18:44:05.891Z,-0.60
2023-02-27T18:47:10.138Z,-0.60
2023-02-27T18:50:13.526Z,-0.69
2023-02-27T18:53:17.138Z,-0.64
2023-02-27T18:56:23.515Z,-0.75
2023-02-27T18:59:26.980Z,-0.81
2023-02-27T19:02:30.445Z,-0.87
2023-02-27T19:05:33.431Z,-0.81
2023-02-27T19:08:36.301Z,-0.90
2023-02-27T19:11:39.420Z,-1.02
2023-02-27T19:14:42.133Z,-1.16
2023-02-27T19:17:44.792Z,-1.11
2023-02-27T19:20:48.061Z,-1.06
2023-02-27T19:23:51.102Z,-1.11
2023-02-27T19:26:53.876Z,-1.24
2023-02-27T19:29:57.216Z,-1.19
2023-02-27T19:33:00.294Z,-1.24
2023-02-27T19:36:13.312Z,-1.26
2023-02-27T19:39:16.411Z,-1.21
2023-02-27T19:42:20.416Z,-1.30
2023-02-27T19:45:23.992Z,-1.19
2023-02-27T19:48:27.273Z,-1.19
2023-02-27T19:51:30.335Z,-1.13
2023-02-27T19:54:33.435Z,-1.22
2023-02-27T19:57:37.445Z,-1.29
2023-02-27T20:00:41.026Z,-1.32
2023-02-27T20:03:44.084Z,-1.36
2023-02-27T20:06:49.678Z,-1.26
2023-02-27T20:09:52.793Z,-1.37
2023-02-27T20:12:55.471Z,-1.40
2023-02-27T20:16:03.763Z,-1.38
2023-02-27T20:19:10.755Z,-1.41
2023-02-27T20:22:17.421Z,-1.45
2023-02-27T20:25:20.697Z,-1.48
2023-02-27T20:28:23.922Z,-1.47
2023-02-27T20:31:29.535Z,-1.50
2023-02-27T20:34:33.035Z,-1.52
2023-02-27T20:37:36.164Z,-1.59
2023-02-27T20:40:39.233Z,-1.58
2023-02-27T20:43:45.239Z,-1.59
2023-02-27T20:46:49.554Z,-1.60
2023-02-27T20:49:52.512Z,-1.78
2023-02-27T20:52:55.540Z,-1.70
2023-02-27T20:55:58.460Z,-1.58
2023-02-27T20:59:04.070Z,-1.54
2023-02-27T21:02:08.947Z,-1.58
2023-02-27T21:05:11.738Z,-1.56
2023-02-27T21:08:14.957Z,-1.59
2023-02-27T21:11:21.030Z,-1.63
2023-02-27T21:14:24.081Z,-1.60
2023-02-27T21:17:26.898Z,-1.60
2023-02-27T21:20:29.795Z,-1.75
2023-02-27T21:23:32.793Z,-1.74
2023-02-27T21:26:40.577Z,-1.74
2023-02-27T21:29:43.286Z,-1.72
2023-02-27T21:32:45.904Z,-1.76
2023-02-27T21:35:49.023Z,-1.75
2023-02-27T21:38:58.502Z,-1.80
2023-02-27T21:42:01.439Z,-1.71
2023-02-27T21:45:04.653Z,-1.75
2023-02-27T21:48:08.470Z,-1.88
2023-02-27T21:51:11.927Z,-2.01
2023-02-27T21:54:15.944Z,-2.03
2023-02-27T21:57:21.452Z,-1.94
2023-02-27T22:00:26.992Z,-1.88
2023-02-27T22:03:34.642Z,-1.98
2023-02-27T22:06:37.395Z,-1.97
2023-02-27T22:09:40.140Z,-1.92
2023-02-27T22:12:42.950Z,-2.03
2023-02-27T22:15:45.548Z,-2.08
2023-02-27T22:18:49.175Z,-2.19
2023-02-27T22:21:51.817Z,-2.22
2023-02-27T22:24:54.748Z,-2.20
2023-02-27T22:27:57.639Z,-2.23
2023-02-27T22:31:20.950Z,-2.21
2023-02-27T22:34:23.723Z,-2.24
2023-02-27T22:37:26.528Z,-2.34
2023-02-27T22:40:29.869Z,-2.30
2023-02-27T22:43:35.084Z,-2.26
2023-02-27T22:46:43.422Z,-2.31
2023-02-27T22:49:46.277Z,-2.32
2023-02-27T22:52:48.873Z,-2.40
2023-02-27T22:55:55.878Z,-2.46
2023-02-27T22:58:58.929Z,-2.38
2023-02-27T23:02:01.699Z,-2.37
2023-02-27T23:05:04.685Z,-2.31
2023-02-27T23:08:07.491Z,-2.36
2023-02-27T23:11:11.293Z,-2.38
2023-02-27T23:14:14.768Z,-2.44
2023-02-27T23:17:17.310Z,-2.43
2023-02-27T23:20:20.135Z,-2.44
2023-02-27T23:23:23.122Z,-2.44
2023-02-27T23:26:28.675Z,-2.46
2023-02-27T23:29:31.431Z,-2.34
2023-02-27T23:32:43.392Z,-2.41
2023-02-27T23:35:46.210Z,-2.38
2023-02-27T23:38:49.052Z,-2.43
2023-02-27T23:41:51.735Z,-2.56
2023-02-27T23:45:23.016Z,-2.62
2023-02-27T23:48:25.660Z,-2.72
2023-02-27T23:51:30.698Z,-2.74
2023-02-27T23:54:33.740Z,-2.74
2023-02-27T23:57:36.380Z,-2.69
